Time;durP1;ratioP1;P1;durP2;ratioP2;P2;SDS_P1;SDS_P2;PMS_P1;PMS_P2;Temp;Humidity;BMP_temperature;BMP_pressure;BME280_temperature;BME280_humidity;BME280_pressure;Samples;Min_cycle;Max_cycle;Signal;HPM_P1;HPM_P2
2022/10/02 00:01:46;;;;;;;17.45;11.00;;;;;;;16.36;100.00;96522.75;5044792;28;20088;-59
2022/10/02 00:04:19;;;;;;;19.55;9.98;;;;;;;16.34;100.00;96507.63;5044693;28;20119;-59
2022/10/02 00:06:48;;;;;;;17.23;10.27;;;;;;;16.50;100.00;96503.00;5043388;28;20049;-59
2022/10/02 00:09:21;;;;;;;15.98;10.07;;;;;;;16.52;100.00;96480.22;5044236;28;20132;-60
2022/10/02 00:11:52;;;;;;;15.45;9.55;;;;;;;16.52;100.00;96464.22;5043488;28;20136;-60
2022/10/02 00:14:23;;;;;;;16.30;10.48;;;;;;;16.08;100.00;96386.22;5044462;28;20702;-59
2022/10/02 00:16:54;;;;;;;20.17;11.48;;;;;;;16.35;100.00;96453.28;5043113;28;20103;-60
2022/10/02 00:19:20;;;;;;;15.25;10.70;;;;;;;16.22;100.00;96455.06;5043226;28;20100;-59
2022/10/02 00:21:50;;;;;;;24.27;11.45;;;;;;;16.35;100.00;96470.88;5044657;28;20115;-59
2022/10/02 00:24:22;;;;;;;18.38;12.23;;;;;;;16.30;100.00;96467.72;5044760;28;20056;-59
2022/10/02 00:26:48;;;;;;;23.00;12.50;;;;;;;16.32;100.00;96454.13;5044747;28;21069;-59
2022/10/02 00:29:39;;;;;;;13.88;11.00;;;;;;;16.25;100.00;96441.06;5042923;28;20527;-60
2022/10/02 00:32:28;;;;;;;17.98;11.23;;;;;;;16.19;100.00;96412.00;5044387;28;20492;-59
2022/10/02 00:35:13;;;;;;;11.80;10.40;;;;;;;16.31;100.00;96397.44;5043236;28;20092;-61
2022/10/02 00:37:58;;;;;;;21.10;11.63;;;;;;;16.32;100.00;96404.63;5043191;28;20453;-59
2022/10/02 00:41:06;;;;;;;16.10;9.27;;;;;;;16.34;100.00;96396.59;5042735;28;20153;-59
2022/10/02 00:44:02;;;;;;;18.73;9.90;;;;;;;16.28;100.00;96397.50;5021814;28;20547;-60
2022/10/02 00:46:45;;;;;;;13.98;10.02;;;;;;;16.28;100.00;96403.09;5018209;28;20053;-59
2022/10/02 00:49:35;;;;;;;16.63;10.32;;;;;;;16.24;100.00;96402.34;5043573;28;20080;-61
2022/10/02 00:52:19;;;;;;;15.20;9.60;;;;;;;16.20;100.00;96391.22;5047090;28;20080;-60
2022/10/02 00:55:07;;;;;;;15.63;8.95;;;;;;;16.14;100.00;96400.50;5048162;28;20053;-59
2022/10/02 00:58:16;;;;;;;18.70;9.95;;;;;;;16.15;100.00;96422.47;5044092;28;20144;-59
2022/10/02 01:01:04;;;;;;;13.05;8.95;;;;;;;16.05;100.00;96420.59;5051977;28;20533;-59
2022/10/02 01:03:38;;;;;;;9.80;8.68;;;;;;;16.03;100.00;96425.81;5028564;28;20042;-59
2022/10/02 01:06:07;;;;;;;13.48;8.40;;;;;;;15.70;100.00;96379.19;5026244;28;20111;-59
2022/10/02 01:08:37;;;;;;;13.07;8.93;;;;;;;15.86;100.00;96389.75;5027900;28;20140;-60
2022/10/02 01:11:05;;;;;;;11.98;8.48;;;;;;;16.11;100.00;96404.94;5028311;28;20163;-61
2022/10/02 01:13:32;;;;;;;14.10;8.43;;;;;;;15.89;100.00;96414.84;5026621;28;20613;-60
2022/10/02 01:16:02;;;;;;;14.10;8.63;;;;;;;16.02;100.00;96423.44;5027781;28;20127;-61
2022/10/02 01:18:29;;;;;;;15.75;8.65;;;;;;;16.05;100.00;96417.81;5026924;28;20085;-61
2022/10/02 01:21:01;;;;;;;12.20;7.72;;;;;;;16.02;100.00;96409.47;5028039;28;20155;-60
2022/10/02 01:24:19;;;;;;;15.00;8.30;;;;;;;16.04;100.00;96405.06;5027075;28;20084;-60
2022/10/02 01:26:46;;;;;;;32.03;15.88;;;;;;;15.63;100.00;96345.81;5010590;28;20095;-60
2022/10/02 01:29:13;;;;;;;10.70;8.63;;;;;;;16.00;100.00;96404.31;5027981;28;20137;-60
2022/10/02 01:31:41;;;;;;;12.77;8.05;;;;;;;16.04;100.00;96404.25;5026301;28;20590;-60
2022/10/02 01:34:08;;;;;;;12.90;8.73;;;;;;;15.94;100.00;96380.06;5026270;28;20061;-60
2022/10/02 01:36:35;;;;;;;17.95;9.00;;;;;;;16.08;100.00;96404.97;5027536;28;20551;-60
2022/10/02 01:39:03;;;;;;;11.10;8.82;;;;;;;16.19;100.00;96403.63;5027508;28;20515;-61
2022/10/02 01:41:41;;;;;;;11.05;8.65;;;;;;;15.88;100.00;96346.22;5027446;28;20092;-61
2022/10/02 01:44:09;;;;;;;15.20;8.73;;;;;;;16.06;100.00;96369.09;5027049;28;20133;-60
2022/10/02 01:46:46;;;;;;;14.65;8.77;;;;;;;16.22;100.00;96377.63;5027561;28;20146;-62
2022/10/02 01:49:21;;;;;;;13.90;7.95;;;;;;;16.22;100.00;96382.41;5026128;28;20061;-60
2022/10/02 01:52:11;;;;;;;17.63;8.90;;;;;;;16.09;100.00;96351.47;5027611;28;20054;-60
2022/10/02 01:54:51;;;;;;;13.90;8.80;;;;;;;16.31;100.00;96385.47;5027565;28;20100;-61
2022/10/02 01:57:28;;;;;;;12.35;7.47;;;;;;;16.32;100.00;96387.84;5027220;28;20477;-60
2022/10/02 02:00:21;;;;;;;15.57;7.43;;;;;;;16.37;100.00;96384.59;5027204;28;20142;-60
2022/10/02 02:03:08;;;;;;;9.45;7.07;;;;;;;16.40;100.00;96378.13;5043926;28;20076;-62
2022/10/02 02:05:59;;;;;;;10.90;7.97;;;;;;;16.29;100.00;96388.69;5046696;28;20092;-60
2022/10/02 02:08:39;;;;;;;12.90;7.70;;;;;;;16.31;100.00;96386.25;5047030;28;20076;-61
2022/10/02 02:11:06;;;;;;;10.25;8.00;;;;;;;16.26;100.00;96381.16;5046678;28;20133;-61
2022/10/02 02:13:46;;;;;;;11.48;8.45;;;;;;;16.20;100.00;96380.03;5045528;28;20048;-60
2022/10/02 02:16:23;;;;;;;12.50;7.93;;;;;;;16.37;100.00;96398.56;5046410;28;20532;-61
2022/10/02 02:19:02;;;;;;;10.85;8.13;;;;;;;16.34;100.00;96393.78;5046407;28;20120;-61
2022/10/02 02:21:35;;;;;;;12.50;8.65;;;;;;;16.46;100.00;96404.44;5045142;28;20063;-61
2022/10/02 02:24:04;;;;;;;13.52;7.63;;;;;;;16.54;100.00;96422.66;5046451;28;20143;-61
2022/10/02 02:26:32;;;;;;;20.90;10.98;;;;;;;16.28;100.00;96426.22;5046288;28;20080;-61
2022/10/02 02:29:08;;;;;;;15.95;8.52;;;;;;;15.88;100.00;96424.44;5045159;28;20083;-61
2022/10/02 02:31:42;;;;;;;18.45;10.25;;;;;;;16.11;100.00;96438.47;5046441;28;20147;-62
2022/10/02 02:34:14;;;;;;;26.13;12.63;;;;;;;16.07;100.00;96434.94;5046311;28;20061;-61
2022/10/02 02:36:43;;;;;;;28.13;12.15;;;;;;;16.21;100.00;96431.94;5044487;28;20526;-61
2022/10/02 02:39:15;;;;;;;35.78;14.32;;;;;;;16.23;100.00;96443.47;5045992;28;20056;-61
2022/10/02 02:41:55;;;;;;;33.08;14.25;;;;;;;16.30;100.00;96446.19;5046206;28;20056;-60
2022/10/02 02:44:32;;;;;;;23.10;10.73;;;;;;;15.99;100.00;96397.16;5046140;28;20139;-60
2022/10/02 02:47:21;;;;;;;16.17;9.95;;;;;;;16.39;100.00;96454.81;5045917;28;20052;-60
2022/10/02 02:50:01;;;;;;;12.30;8.43;;;;;;;16.28;100.00;96437.41;5044766;28;20059;-59
2022/10/02 02:52:34;;;;;;;10.70;7.85;;;;;;;16.45;100.00;96463.56;5046214;28;20084;-59
2022/10/02 02:55:08;;;;;;;16.30;8.65;;;;;;;16.33;100.00;96450.13;5045996;28;20135;-60
2022/10/02 02:57:56;;;;;;;13.70;8.95;;;;;;;16.04;100.00;96433.00;5046099;28;20486;-60
2022/10/02 03:00:24;;;;;;;12.32;7.90;;;;;;;15.94;100.00;96433.94;5045569;28;20143;-60
2022/10/02 03:02:53;;;;;;;9.95;8.30;;;;;;;15.98;100.00;96445.81;5044332;28;20084;-59
2022/10/02 03:05:23;;;;;;;12.27;7.78;;;;;;;16.12;100.00;96456.81;5045271;28;20061;-59
2022/10/02 03:08:00;;;;;;;9.52;7.50;;;;;;;16.12;100.00;96450.44;5043511;28;20104;-60
2022/10/02 03:10:50;;;;;;;14.52;7.28;;;;;;;16.18;100.00;96445.97;5044374;28;20140;-59
2022/10/02 03:13:20;;;;;;;14.35;6.65;;;;;;;16.22;100.00;96447.50;5042236;28;20087;-59
2022/10/02 03:16:05;;;;;;;9.30;6.72;;;;;;;16.25;100.00;96438.25;5045448;28;20118;-59
2022/10/02 03:18:40;;;;;;;10.50;6.75;;;;;;;16.28;100.00;96454.19;5045622;28;20053;-60
2022/10/02 03:21:15;;;;;;;8.20;6.10;;;;;;;16.31;100.00;96447.75;5045518;28;20052;-60
2022/10/02 03:23:45;;;;;;;7.45;5.03;;;;;;;16.32;100.00;96446.56;5045495;28;20076;-61
2022/10/02 03:26:27;;;;;;;8.20;5.10;;;;;;;16.37;100.00;96442.47;5045268;28;20084;-61
2022/10/02 03:28:58;;;;;;;7.40;5.13;;;;;;;16.37;100.00;96440.50;5045247;28;20052;-60
2022/10/02 03:31:29;;;;;;;10.23;5.05;;;;;;;16.42;100.00;96448.38;5045272;28;20526;-60
2022/10/02 03:33:59;;;;;;;4.05;3.30;;;;;;;16.41;100.00;96449.59;5044973;28;20435;-59
2022/10/02 03:36:26;;;;;;;3.38;3.08;;;;;;;16.42;100.00;96450.41;5045146;28;20125;-62
2022/10/02 03:39:00;;;;;;;5.80;3.90;;;;;;;16.22;100.00;96405.56;5044927;28;20056;-60
2022/10/02 03:41:47;;;;;;;3.42;2.67;;;;;;;16.17;100.00;96386.47;5043769;28;20049;-61
2022/10/02 03:44:13;;;;;;;3.20;2.38;;;;;;;16.66;98.58;96448.47;5045020;28;20140;-61
2022/10/02 03:46:40;;;;;;;4.22;2.60;;;;;;;16.92;98.48;96453.19;5045323;28;20498;-61
2022/10/02 03:49:07;;;;;;;18.10;6.50;;;;;;;16.83;100.00;96458.56;5042760;28;20139;-60
2022/10/02 03:51:33;;;;;;;24.35;7.72;;;;;;;16.92;100.00;96467.19;5045071;28;20419;-60
2022/10/02 03:54:00;;;;;;;13.88;5.80;;;;;;;16.98;100.00;96462.69;5044999;28;20052;-60
2022/10/02 03:56:45;;;;;;;4.43;4.03;;;;;;;17.07;100.00;96465.75;5045157;28;20049;-60
2022/10/02 03:59:17;;;;;;;7.35;3.10;;;;;;;16.95;100.00;96452.34;5044708;28;20211;-60
2022/10/02 04:01:49;;;;;;;33.85;10.80;;;;;;;16.07;100.00;96376.28;5044767;28;20111;-60
2022/10/02 04:04:30;;;;;;;24.43;8.47;;;;;;;16.68;100.00;96462.81;5044818;28;20052;-60
2022/10/02 04:07:04;;;;;;;9.45;5.22;;;;;;;16.70;100.00;96472.34;5044823;28;20319;-61
2022/10/02 04:09:38;;;;;;;5.82;4.40;;;;;;;16.60;100.00;96476.09;5044949;28;20436;-61
2022/10/02 04:12:12;;;;;;;6.95;4.72;;;;;;;16.55;100.00;96480.16;5044549;28;20068;-61
2022/10/02 04:14:46;;;;;;;;;;;;;;;16.53;100.00;96493.00;5045262;28;20136;-61
2022/10/02 04:17:19;;;;;;;;;;;;;;;16.56;100.00;96515.31;5043640;28;20012;-61
2022/10/02 04:19:56;;;;;;;5.22;3.53;;;;;;;16.56;100.00;96520.91;5044155;28;20027;-62
2022/10/02 04:22:33;;;;;;;8.32;5.07;;;;;;;16.41;100.00;96535.47;5044468;28;20045;-60
2022/10/02 04:25:11;;;;;;;7.13;4.55;;;;;;;16.07;100.00;96442.53;5044216;28;20085;-61
2022/10/02 04:27:51;;;;;;;4.78;3.38;;;;;;;16.26;100.00;96459.44;5044659;28;20131;-61
2022/10/02 04:30:19;;;;;;;3.83;3.50;;;;;;;16.50;100.00;96505.03;5044388;28;20063;-61
2022/10/02 04:32:46;;;;;;;3.80;3.20;;;;;;;16.02;100.00;96424.25;5042812;28;20157;-60
2022/10/02 04:35:22;;;;;;;3.72;2.30;;;;;;;16.68;99.66;96504.75;5042637;28;20060;-63
2022/10/02 04:38:04;;;;;;;5.97;2.88;;;;;;;16.82;96.05;96515.72;5044477;28;20053;-62
2022/10/02 04:40:52;;;;;;;3.10;2.58;;;;;;;16.89;99.77;96521.19;5042793;28;20084;-60
2022/10/02 04:43:18;;;;;;;6.95;3.40;;;;;;;16.90;97.96;96528.38;5042990;28;20131;-62
2022/10/02 04:45:54;;;;;;;3.50;3.10;;;;;;;16.66;93.93;96479.22;5044189;28;20077;-60
2022/10/02 04:48:35;;;;;;;3.10;2.03;;;;;;;16.63;83.43;96418.53;5044371;28;20134;-61
2022/10/02 04:51:42;;;;;;;6.25;2.70;;;;;;;17.38;88.58;96514.75;5044069;28;20188;-62
2022/10/02 04:54:45;;;;;;;3.38;2.97;;;;;;;17.28;91.04;96538.13;5044487;28;20113;-61
2022/10/02 04:57:26;;;;;;;4.88;3.47;;;;;;;17.37;88.27;96538.38;5044242;28;20488;-62
2022/10/02 05:00:31;;;;;;;3.92;3.15;;;;;;;17.41;93.90;96547.50;5044297;28;20085;-61
2022/10/02 05:03:28;;;;;;;3.35;3.05;;;;;;;16.97;100.00;96553.44;5021649;28;20049;-61
2022/10/02 05:06:10;;;;;;;3.80;3.13;;;;;;;17.17;100.00;96562.69;5020969;28;20660;-61
2022/10/02 05:08:48;;;;;;;3.25;2.90;;;;;;;17.15;97.97;96567.97;5038704;28;20507;-61
2022/10/02 05:11:27;;;;;;;10.10;4.22;;;;;;;17.18;96.54;96561.50;5043785;28;20095;-61
2022/10/02 05:13:59;;;;;;;8.38;4.13;;;;;;;17.38;93.90;96562.34;5043756;28;20088;-63
2022/10/02 05:16:41;;;;;;;6.20;3.75;;;;;;;17.60;90.81;96574.78;5042332;28;20048;-62
2022/10/02 05:19:31;;;;;;;6.82;3.88;;;;;;;17.68;91.09;96570.66;5044329;28;20453;-61
2022/10/02 05:22:00;;;;;;;3.53;3.00;;;;;;;17.64;89.55;96578.34;5041786;28;20520;-61
2022/10/02 05:24:30;;;;;;;4.85;3.20;;;;;;;17.72;92.68;96563.75;5043909;28;20072;-61
2022/10/02 05:27:05;;;;;;;2.90;2.60;;;;;;;17.70;90.65;96560.59;5042345;28;20558;-61
2022/10/02 05:29:54;;;;;;;3.78;3.45;;;;;;;17.81;90.02;96568.81;5044093;28;20084;-61
2022/10/02 05:32:32;;;;;;;4.75;3.70;;;;;;;17.78;84.12;96572.47;5047164;28;20084;-60
2022/10/02 05:35:27;;;;;;;6.15;3.58;;;;;;;17.99;78.06;96560.84;5047430;28;20061;-61
2022/10/02 05:38:03;;;;;;;4.05;3.15;;;;;;;18.25;81.43;96573.94;5047464;28;20068;-61
2022/10/02 05:40:35;;;;;;;2.75;2.55;;;;;;;18.49;79.60;96572.66;5047176;28;20148;-62
2022/10/02 05:43:20;;;;;;;3.63;2.45;;;;;;;18.64;75.53;96596.38;5045809;28;20484;-63
2022/10/02 05:45:57;;;;;;;3.25;3.05;;;;;;;18.99;76.60;96586.38;5046412;28;20484;-59
2022/10/02 05:48:42;;;;;;;3.83;3.13;;;;;;;19.12;77.74;96554.38;5045827;28;20455;-59
2022/10/02 05:51:17;;;;;;;4.40;3.08;;;;;;;19.71;74.81;96603.91;5046715;28;20493;-60
2022/10/02 05:53:56;;;;;;;3.80;3.50;;;;;;;19.96;68.99;96589.97;5045354;28;20149;-60
2022/10/02 05:56:35;;;;;;;8.57;3.70;;;;;;;20.15;62.26;96598.31;5047119;28;20057;-62
2022/10/02 05:59:12;;;;;;;3.40;3.00;;;;;;;20.42;59.75;96600.78;5047239;28;20064;-62
2022/10/02 06:01:44;;;;;;;3.30;3.00;;;;;;;20.50;59.61;96574.78;5047075;28;20099;-60
2022/10/02 06:04:17;;;;;;;2.45;2.35;;;;;;;20.85;57.98;96601.06;5046940;28;20057;-61
2022/10/02 06:06:54;;;;;;;3.83;3.50;;;;;;;20.59;60.03;96565.69;5046892;28;20114;-61
2022/10/02 06:09:29;;;;;;;3.05;2.85;;;;;;;20.74;54.94;96623.13;5045594;28;20057;-60
2022/10/02 06:12:08;;;;;;;2.83;2.67;;;;;;;20.27;54.55;96577.06;5046870;28;20076;-61
2022/10/02 06:14:43;;;;;;;3.83;3.45;;;;;;;20.30;55.27;96624.00;5045110;28;20949;-59
2022/10/02 06:17:26;;;;;;;4.03;2.90;;;;;;;20.05;53.51;96593.72;5047044;28;20060;-60
2022/10/02 06:20:14;;;;;;;3.63;2.67;;;;;;;20.16;53.43;96601.91;5046372;28;20148;-59
2022/10/02 06:22:46;;;;;;;2.80;2.67;;;;;;;20.03;53.32;96657.28;5046434;28;20493;-61
2022/10/02 06:25:23;;;;;;;2.67;2.50;;;;;;;19.62;51.35;96578.44;5044921;28;20052;-61
2022/10/02 06:28:00;;;;;;;4.13;2.70;;;;;;;20.18;50.16;96619.13;5046909;28;20172;-62
2022/10/02 06:30:31;;;;;;;3.63;2.90;;;;;;;20.31;50.10;96611.53;5046401;28;20053;-62
2022/10/02 06:33:15;;;;;;;3.55;3.03;;;;;;;20.51;51.05;96651.56;5046419;28;20083;-61
2022/10/02 06:35:51;;;;;;;;;;;;;;;20.66;49.70;96644.31;5046588;28;20135;-61
2022/10/02 06:38:47;;;;;;;2.67;2.47;;;;;;;20.69;50.01;96649.03;5044912;28;20031;-61
2022/10/02 06:41:23;;;;;;;2.80;2.60;;;;;;;20.58;49.42;96575.38;5046023;28;20080;-61
2022/10/02 06:44:11;;;;;;;2.72;2.45;;;;;;;20.84;47.58;96655.81;5045721;28;20130;-61
2022/10/02 06:47:12;;;;;;;2.80;2.70;;;;;;;20.69;47.21;96610.41;5044942;28;20472;-62
2022/10/02 06:49:56;;;;;;;5.03;3.67;;;;;;;20.92;51.39;96643.13;5046294;28;20135;-61
2022/10/02 06:52:29;;;;;;;3.50;2.78;;;;;;;20.92;51.60;96634.66;5045844;28;20419;-60
2022/10/02 06:55:42;;;;;;;3.40;3.13;;;;;;;21.05;50.30;96649.59;5045540;28;20602;-59
2022/10/02 06:58:33;;;;;;;3.20;3.00;;;;;;;21.08;49.59;96643.06;5039295;28;20065;-60
2022/10/02 07:01:20;;;;;;;3.05;2.80;;;;;;;21.22;49.25;96653.88;5045555;28;20565;-60
2022/10/02 07:04:03;;;;;;;4.20;2.83;;;;;;;21.21;47.22;96697.41;5045927;28;20052;-60
2022/10/02 07:06:57;;;;;;;2.72;2.60;;;;;;;21.24;45.33;96651.41;5045413;28;20069;-60
2022/10/02 07:09:23;;;;;;;;;;;;;;;21.26;41.88;96643.28;5045837;28;20579;-61
2022/10/02 07:12:08;;;;;;;3.97;2.25;;;;;;;21.16;42.62;96632.34;5045636;28;19959;-63
2022/10/02 07:14:53;;;;;;;4.50;2.58;;;;;;;21.09;40.97;96633.34;5045388;28;20084;-60
2022/10/02 07:17:33;;;;;;;2.95;2.75;;;;;;;20.96;41.54;96636.16;5045533;28;20466;-60
2022/10/02 07:20:20;;;;;;;2.47;2.38;;;;;;;21.00;41.77;96658.59;5043816;28;20495;-60
2022/10/02 07:23:23;;;;;;;3.50;2.55;;;;;;;20.99;43.84;96668.28;5045328;28;20076;-61
2022/10/02 07:26:07;;;;;;;2.92;2.72;;;;;;;21.08;42.98;96699.41;5043675;28;20831;-60
2022/10/02 07:28:46;;;;;;;2.72;2.53;;;;;;;21.13;41.52;96645.31;5043905;28;20578;-61
2022/10/02 07:31:14;;;;;;;3.05;2.58;;;;;;;21.32;42.00;96660.44;5045098;28;20107;-62
2022/10/02 07:34:02;;;;;;;2.88;2.67;;;;;;;21.54;42.91;96658.50;5045196;28;20056;-61
2022/10/02 07:36:53;;;;;;;2.72;2.63;;;;;;;21.87;41.60;96671.94;5043745;28;20130;-62
2022/10/02 07:39:26;;;;;;;5.80;4.97;;;;;;;22.08;42.69;96682.50;5043759;28;20133;-61
2022/10/02 07:42:01;;;;;;;2.50;2.40;;;;;;;22.04;42.37;96670.56;5044680;28;20595;-61
2022/10/02 07:44:49;;;;;;;2.70;2.60;;;;;;;22.03;38.44;96669.00;5044913;28;20110;-61
2022/10/02 07:47:37;;;;;;;2.85;2.65;;;;;;;22.12;37.42;96654.97;5043397;28;20140;-63
2022/10/02 07:50:12;;;;;;;2.70;2.60;;;;;;;22.10;37.33;96634.88;5045116;28;21269;-61
2022/10/02 07:52:54;;;;;;;2.47;2.38;;;;;;;22.24;37.46;96645.66;5043249;28;20106;-61
2022/10/02 07:55:22;;;;;;;2.58;2.47;;;;;;;22.38;39.02;96645.16;5043218;28;20125;-61
2022/10/02 07:58:11;;;;;;;4.07;3.15;;;;;;;22.27;40.08;96656.03;5043193;28;20087;-61
2022/10/02 08:00:51;;;;;;;3.22;2.97;;;;;;;22.17;40.13;96645.94;5044395;28;20052;-61
2022/10/02 08:03:23;;;;;;;3.08;2.90;;;;;;;22.06;41.56;96634.22;5044765;28;20512;-62
2022/10/02 08:05:55;;;;;;;3.75;2.80;;;;;;;22.17;41.58;96645.94;5043874;28;20140;-61
2022/10/02 08:08:37;;;;;;;2.90;2.70;;;;;;;22.17;41.47;96629.00;5044819;28;20498;-60
2022/10/02 08:11:20;;;;;;;2.80;2.70;;;;;;;22.10;39.90;96639.72;5044548;28;20068;-61
2022/10/02 08:13:55;;;;;;;2.70;2.50;;;;;;;22.27;35.85;96633.47;5044512;28;20159;-62
2022/10/02 08:16:33;;;;;;;2.70;2.50;;;;;;;22.43;36.89;96658.69;5043233;28;20052;-60
2022/10/02 08:19:06;;;;;;;2.78;2.58;;;;;;;22.48;35.22;96649.66;5044435;28;20084;-61
2022/10/02 08:21:39;;;;;;;2.60;2.45;;;;;;;22.11;34.80;96653.38;5044246;28;20055;-61
2022/10/02 08:24:14;;;;;;;2.60;2.50;;;;;;;22.21;35.35;96655.03;5042917;28;20409;-64
2022/10/02 08:26:46;;;;;;;2.63;2.53;;;;;;;21.98;34.25;96675.19;5042968;28;20053;-61
2022/10/02 08:29:43;;;;;;;2.80;2.67;;;;;;;22.15;34.03;96662.53;5044303;28;20517;-61
2022/10/02 08:32:10;;;;;;;4.20;2.80;;;;;;;22.23;33.37;96694.91;5043810;28;20160;-64
2022/10/02 08:34:37;;;;;;;4.82;2.67;;;;;;;22.07;33.35;96618.88;5043071;28;20132;-61
2022/10/02 08:37:13;;;;;;;2.70;2.50;;;;;;;22.26;34.07;96660.13;5043309;28;20088;-61
2022/10/02 08:40:00;;;;;;;2.33;2.22;;;;;;;22.23;33.35;96644.09;5044621;28;20546;-62
2022/10/02 08:43:07;;;;;;;2.60;2.40;;;;;;;22.15;34.06;96659.69;5043042;28;20049;-61
2022/10/02 08:45:39;;;;;;;2.97;2.55;;;;;;;22.12;34.04;96649.31;5042886;28;20064;-61
2022/10/02 08:48:25;;;;;;;2.83;2.63;;;;;;;21.95;34.81;96667.66;5044147;28;20492;-62
2022/10/02 08:51:38;;;;;;;6.72;2.58;;;;;;;21.93;35.65;96687.06;5044122;28;20052;-60
2022/10/02 08:54:49;;;;;;;9.13;2.83;;;;;;;21.81;33.85;96672.97;5027766;28;20052;-60
2022/10/02 08:57:34;;;;;;;2.60;2.47;;;;;;;21.80;34.01;96689.09;5037518;28;20206;-62
2022/10/02 09:00:21;;;;;;;3.30;2.45;;;;;;;21.74;33.62;96673.16;5044571;28;20045;-61
2022/10/02 09:03:26;;;;;;;2.50;2.40;;;;;;;21.82;35.42;96664.06;5042404;28;20053;-62
2022/10/02 09:06:10;;;;;;;10.52;3.58;;;;;;;21.55;35.94;96689.06;5045086;28;20061;-61
2022/10/02 09:08:39;;;;;;;;;;;;;;;21.48;35.96;96694.16;5048481;28;20141;-63
2022/10/02 09:11:15;;;;;;;7.40;2.40;;;;;;;21.41;35.94;96671.81;5047819;28;20020;-59
2022/10/02 09:14:19;;;;;;;5.47;2.58;;;;;;;21.43;37.22;96677.78;5047793;28;20088;-61
2022/10/02 09:17:07;;;;;;;2.22;2.13;;;;;;;21.35;36.15;96705.41;5046236;28;20049;-61
2022/10/02 09:20:05;;;;;;;3.38;2.40;;;;;;;21.24;37.40;96696.50;5045844;28;20884;-61
2022/10/02 09:22:50;;;;;;;2.85;2.28;;;;;;;21.28;37.69;96708.44;5046030;28;20080;-62
2022/10/02 09:25:38;;;;;;;2.50;2.30;;;;;;;21.43;36.27;96680.63;5047591;28;20478;-62
2022/10/02 09:28:35;;;;;;;2.05;1.95;;;;;;;21.44;36.06;96719.63;5046423;28;20092;-62
2022/10/02 09:31:23;;;;;;;2.90;2.70;;;;;;;21.46;37.30;96691.78;5046148;28;20468;-63
2022/10/02 09:33:56;;;;;;;2.53;2.40;;;;;;;21.47;36.63;96682.06;5047938;28;20053;-63
2022/10/02 09:36:28;;;;;;;2.60;2.40;;;;;;;21.71;37.15;96697.41;5047025;28;20579;-60
2022/10/02 09:39:24;;;;;;;2.23;2.13;;;;;;;21.76;36.07;96705.34;5046012;28;20504;-62
2022/10/02 09:41:50;;;;;;;3.38;2.40;;;;;;;21.63;35.85;96701.72;5047749;28;20056;-60
2022/10/02 09:44:35;;;;;;;2.25;2.15;;;;;;;21.69;36.33;96694.25;5046046;28;20504;-63
2022/10/02 09:47:35;;;;;;;2.20;2.10;;;;;;;21.79;35.47;96721.38;5047740;28;20053;-61
2022/10/02 09:50:21;;;;;;;3.95;2.42;;;;;;;21.93;35.53;96754.75;5046110;28;20068;-61
2022/10/02 09:53:33;;;;;;;3.17;2.83;;;;;;;21.83;35.74;96735.34;5045895;28;20902;-61
2022/10/02 09:56:24;;;;;;;3.00;2.70;;;;;;;21.95;35.52;96712.78;5043333;28;20187;-60
2022/10/02 09:58:58;;;;;;;2.47;2.38;;;;;;;22.03;35.83;96738.72;5046128;28;20064;-62
2022/10/02 10:01:48;;;;;;;5.55;2.60;;;;;;;21.63;35.14;96676.34;5046807;28;20120;-63
2022/10/02 10:04:33;;;;;;;2.42;2.30;;;;;;;22.00;34.37;96754.50;5047083;28;20060;-62
2022/10/02 10:07:36;;;;;;;2.80;2.67;;;;;;;21.22;34.45;96682.06;5046519;28;20504;-61
2022/10/02 10:10:27;;;;;;;3.17;2.72;;;;;;;21.71;34.47;96708.69;5046983;28;20599;-61
2022/10/02 10:12:56;;;;;;;7.60;2.60;;;;;;;22.07;34.26;96765.56;5045668;28;20140;-61
2022/10/02 10:16:00;;;;;;;3.60;2.80;;;;;;;22.25;34.78;96776.28;5046644;28;20135;-61
2022/10/02 10:18:27;;;;;;;;;;;;;;;22.04;34.92;96791.88;5045932;28;20061;-62
2022/10/02 10:21:09;;;;;;;2.60;2.40;;;;;;;21.89;34.75;96765.34;5046501;28;19972;-62
2022/10/02 10:24:00;;;;;;;2.35;2.25;;;;;;;21.86;34.97;96760.59;5046903;28;20057;-62
2022/10/02 10:26:42;;;;;;;2.50;2.30;;;;;;;21.98;35.22;96762.66;5046755;28;20518;-64
2022/10/02 10:29:49;;;;;;;2.77;2.57;;;;;;;21.91;35.12;96754.41;5045691;28;20564;-62
2022/10/02 10:32:40;;;;;;;3.13;2.92;;;;;;;21.97;34.77;96749.78;5022761;28;20508;-61
2022/10/02 10:35:18;;;;;;;2.50;2.40;;;;;;;21.82;34.61;96720.47;5046694;28;20144;-62
2022/10/02 10:41:03;;;;;;;3.42;3.05;;;;;;;22.13;35.06;96766.56;5046161;28;20056;-62
2022/10/02 10:43:50;;;;;;;;;;;;;;;22.12;35.41;96767.81;5046991;28;20064;-61
2022/10/02 10:46:48;;;;;;;3.33;3.03;;;;;;;22.24;35.71;96769.06;5046313;28;19925;-61
2022/10/02 10:49:41;;;;;;;3.38;2.80;;;;;;;22.12;35.82;96773.47;5046626;28;20109;-60
2022/10/02 10:52:27;;;;;;;3.42;2.50;;;;;;;22.00;35.17;96788.34;5044878;28;20088;-62
2022/10/02 10:55:15;;;;;;;2.50;2.38;;;;;;;21.87;36.34;96790.41;5045914;28;20080;-63
2022/10/02 10:57:51;;;;;;;2.65;2.40;;;;;;;21.76;36.37;96778.66;5046225;28;20118;-62
2022/10/02 11:00:31;;;;;;;2.42;2.33;;;;;;;21.41;36.57;96702.81;5046633;28;20650;-61
2022/10/02 11:03:01;;;;;;;3.15;2.95;;;;;;;21.78;36.04;96759.25;5044559;28;20579;-61
2022/10/02 11:06:12;;;;;;;3.25;2.75;;;;;;;21.68;36.69;96774.44;5045772;28;20590;-61
2022/10/02 11:09:21;;;;;;;3.45;2.55;;;;;;;21.74;36.62;96775.47;5045900;28;20380;-60
2022/10/02 11:12:03;;;;;;;5.45;2.75;;;;;;;21.82;36.82;96771.22;5044433;28;20130;-62
2022/10/02 11:15:01;;;;;;;2.50;2.40;;;;;;;21.91;36.57;96788.25;5044532;28;20059;-61
2022/10/02 11:17:37;;;;;;;2.60;2.40;;;;;;;21.96;36.39;96775.59;5045868;28;20135;-61
2022/10/02 11:20:12;;;;;;;2.70;2.60;;;;;;;21.96;36.49;96782.03;5045699;28;20118;-63
2022/10/02 11:23:04;;;;;;;4.35;2.75;;;;;;;21.75;36.50;96776.25;5045677;28;20080;-61
2022/10/02 11:25:43;;;;;;;4.75;2.80;;;;;;;21.99;37.52;96791.63;5045611;28;20080;-61
2022/10/02 11:28:41;;;;;;;3.70;2.83;;;;;;;21.95;37.40;96769.19;5043530;28;20136;-61
2022/10/02 11:31:22;;;;;;;2.80;2.65;;;;;;;22.04;37.29;96771.31;5045602;28;20153;-61
2022/10/02 11:33:52;;;;;;;4.20;2.75;;;;;;;21.98;37.07;96796.50;5045267;28;20117;-60
2022/10/02 11:36:41;;;;;;;4.63;2.78;;;;;;;22.12;37.10;96801.69;5045171;28;20140;-61
2022/10/02 11:39:15;;;;;;;3.92;2.97;;;;;;;22.17;36.51;96787.00;5045528;28;20114;-62
2022/10/02 11:41:52;;;;;;;3.13;2.85;;;;;;;21.91;36.91;96782.59;5045184;28;20144;-62
2022/10/02 11:44:26;;;;;;;3.05;2.85;;;;;;;22.18;37.02;96784.97;5043721;28;20562;-62
2022/10/02 11:47:39;;;;;;;3.72;3.08;;;;;;;22.38;36.11;96791.16;5043954;28;20413;-62
2022/10/02 11:50:32;;;;;;;3.00;2.80;;;;;;;22.39;36.46;96802.00;5039633;28;20583;-61
2022/10/02 11:53:01;;;;;;;2.70;2.60;;;;;;;22.40;36.67;96809.22;5038174;28;20080;-61
2022/10/02 11:55:44;;;;;;;4.75;3.05;;;;;;;22.54;36.41;96787.44;5045101;28;20134;-61
2022/10/02 11:58:40;;;;;;;2.60;2.50;;;;;;;22.80;36.16;96803.06;5045369;28;20057;-61
2022/10/02 12:01:16;;;;;;;2.92;2.72;;;;;;;22.73;36.62;96809.75;5044758;28;20061;-61
2022/10/02 12:03:51;;;;;;;2.75;2.65;;;;;;;22.40;36.77;96766.06;5025024;28;20130;-61
2022/10/02 12:06:34;;;;;;;2.85;2.75;;;;;;;22.39;36.71;96792.75;5024754;28;20067;-60
2022/10/02 12:09:13;;;;;;;2.85;2.75;;;;;;;22.56;37.20;96830.13;5023913;28;20149;-62
2022/10/02 12:11:50;;;;;;;3.10;2.90;;;;;;;22.15;36.87;96786.66;5025316;28;20526;-60
2022/10/02 12:14:28;;;;;;;2.70;2.50;;;;;;;22.37;36.97;96824.25;5025252;28;20084;-62
2022/10/02 12:17:15;;;;;;;3.30;2.40;;;;;;;22.16;37.19;96824.94;5024700;28;20508;-63
2022/10/02 12:29:39;;;;;;;3.00;2.80;;;;;;;21.81;38.38;96817.59;5024544;28;20085;-60
2022/10/02 12:32:15;;;;;;;3.00;2.80;;;;;;;22.10;37.24;96821.09;5024884;28;20057;-62
2022/10/02 12:35:07;;;;;;;3.25;3.00;;;;;;;21.98;37.06;96773.94;5024469;28;20107;-61
2022/10/02 12:37:51;;;;;;;2.70;2.60;;;;;;;22.28;36.50;96820.53;5024585;28;20101;-62
2022/10/02 12:40:22;;;;;;;2.75;2.55;;;;;;;21.92;37.53;96787.03;5024560;28;20119;-61
2022/10/02 12:43:04;;;;;;;2.80;2.60;;;;;;;22.15;37.79;96829.00;5023220;28;20100;-60
2022/10/02 12:45:43;;;;;;;2.58;2.47;;;;;;;21.93;38.03;96838.56;5024365;28;20096;-60